createdAt,value
2023-05-15T19:30:12.953Z,98543.09
2023-05-15T19:32:49.118Z,98541.13
2023-05-15T19:35:20.749Z,98538.98
2023-05-15T19:37:52.844Z,98538.02
2023-05-15T19:40:24.864Z,98534.67
2023-05-15T19:42:56.864Z,98535.48
2023-05-15T19:45:30.596Z,98536.83
2023-05-15T19:48:03.692Z,98527.86
2023-05-15T20:01:18.506Z,98522.56
2023-05-15T20:03:50.163Z,98522.98
2023-05-15T20:06:22.138Z,98516.32
2023-05-15T20:08:53.801Z,98512.08
2023-05-15T20:11:26.026Z,98513.94
2023-05-15T20:13:57.653Z,98513.43
2023-05-15T20:16:29.275Z,98512.96
2023-05-15T20:19:01.045Z,98509.39
2023-05-15T20:21:32.856Z,98507.14
2023-05-15T20:24:04.765Z,98507.53
2023-05-15T20:26:36.681Z,98502.71
2023-05-15T20:29:08.306Z,98499.39
2023-05-15T20:31:40.665Z,98499.80
2023-05-15T20:34:15.304Z,98494.81
2023-05-15T20:36:47.764Z,98494.04
2023-05-15T20:39:20.163Z,98489.55
2023-05-15T20:41:52.143Z,98488.52
2023-05-15T20:44:23.901Z,98489.64
2023-05-15T20:46:55.854Z,98482.98
2023-05-15T20:49:27.442Z,98482.20
2023-05-15T20:52:00.536Z,98481.41
2023-05-15T20:54:32.265Z,98481.34
2023-05-15T20:57:05.141Z,98479.02
2023-05-15T20:59:36.716Z,98474.77
2023-05-15T21:02:08.424Z,98476.40
2023-05-15T21:04:40.004Z,98476.23
2023-05-15T21:07:11.885Z,98470.59
2023-05-15T21:09:43.413Z,98470.15
2023-05-15T21:12:15.278Z,98470.77
2023-05-15T21:14:46.930Z,98466.79
2023-05-15T21:17:21.387Z,98462.69
2023-05-15T21:19:53.776Z,98456.86
2023-05-15T21:22:25.371Z,98452.64
2023-05-15T21:24:56.959Z,98452.71
2023-05-15T21:27:28.709Z,98452.07
2023-05-15T21:30:00.441Z,98453.10
2023-05-15T21:32:32.093Z,98456.87
2023-05-15T21:35:03.876Z,98452.10
2023-05-15T21:37:35.930Z,98450.34
2023-05-15T21:40:08.444Z,98451.64
2023-05-15T21:42:40.953Z,98444.80
2023-05-15T21:45:15.051Z,98448.67
2023-05-15T21:47:49.265Z,98447.26
2023-05-15T21:50:20.914Z,98442.02
2023-05-15T21:52:55.346Z,98448.90
2023-05-15T21:55:26.975Z,98447.10
2023-05-15T21:58:01.054Z,98440.69
2023-05-15T22:00:32.800Z,98440.44
2023-05-15T22:03:04.478Z,98438.52
2023-05-15T22:05:36.321Z,98434.87
2023-05-15T22:08:10.339Z,98434.64
2023-05-15T22:10:41.981Z,98436.39
2023-05-15T22:13:13.665Z,98435.27
2023-05-15T22:15:45.347Z,98440.71
2023-05-15T22:18:16.901Z,98441.01
2023-05-15T22:20:48.938Z,98438.19
2023-05-15T22:23:20.646Z,98440.42
2023-05-15T22:25:52.334Z,98439.09
2023-05-15T22:28:23.981Z,98436.52
2023-05-15T22:30:58.356Z,98433.34
2023-05-15T22:33:30.206Z,98435.84
2023-05-15T22:36:06.193Z,98433.16
2023-05-15T22:38:37.972Z,98432.44
2023-05-15T22:41:09.633Z,98428.45
2023-05-15T22:43:41.755Z,98433.23
2023-05-15T22:46:13.488Z,98428.23
2023-05-15T22:48:45.102Z,98427.94
2023-05-15T22:51:17.632Z,98423.62
2023-05-15T22:53:49.213Z,98425.58
2023-05-15T22:56:21.452Z,98418.59
2023-05-15T22:58:53.399Z,98421.79
2023-05-15T23:01:25.089Z,98420.39
2023-05-15T23:03:56.872Z,98418.64
2023-05-15T23:06:28.553Z,98416.39
2023-05-15T23:09:03.941Z,98414.02
2023-05-15T23:11:35.945Z,98416.76
2023-05-15T23:14:08.505Z,98410.61
2023-05-15T23:16:40.241Z,98412.05
2023-05-15T23:19:12.012Z,98415.29
2023-05-15T23:21:49.125Z,98414.13
2023-05-15T23:24:20.878Z,98406.67
2023-05-15T23:26:52.639Z,98407.03
2023-05-15T23:29:24.289Z,98403.16
2023-05-15T23:31:58.813Z,98407.45
2023-05-15T23:34:30.778Z,98404.82
2023-05-15T23:37:02.470Z,98403.52
2023-05-15T23:39:34.196Z,98404.59
2023-05-15T23:42:06.208Z,98405.19
2023-05-15T23:44:40.401Z,98403.77
2023-05-15T23:47:12.101Z,98406.64
2023-05-15T23:49:44.155Z,98405.38
2023-05-15T23:52:15.953Z,98401.03
2023-05-15T23:54:47.641Z,98404.18
2023-05-15T23:57:19.581Z,98399.63
2023-05-15T23:59:54.096Z,98403.20
